createdAt,value
2023-01-27T00:00:48.864Z,34.75
2023-01-27T00:03:15.403Z,34.86
2023-01-27T00:05:42.050Z,34.95
2023-01-27T00:08:08.632Z,35.00
2023-01-27T00:10:35.310Z,34.55
2023-01-27T00:13:01.970Z,34.60
2023-01-27T00:15:31.207Z,34.41
2023-01-27T00:17:57.849Z,34.50
2023-01-27T00:20:25.167Z,34.51
2023-01-27T00:22:51.721Z,34.54
2023-01-27T00:25:18.462Z,34.99
2023-01-27T00:27:45.424Z,34.87
2023-01-27T00:30:13.193Z,34.33
2023-01-27T00:32:41.184Z,34.71
2023-01-27T00:35:08.143Z,34.55
2023-01-27T00:37:35.002Z,34.53
2023-01-27T00:40:01.515Z,34.52
2023-01-27T00:42:28.046Z,34.29
2023-01-27T00:44:54.544Z,35.05
2023-01-27T00:47:21.132Z,34.91
2023-01-27T00:49:48.922Z,34.70
2023-01-27T00:52:15.533Z,34.45
2023-01-27T00:54:42.047Z,34.35
2023-01-27T00:57:08.555Z,34.51
2023-01-27T00:59:35.066Z,34.48
2023-01-27T01:02:01.627Z,34.58
2023-01-27T01:04:28.128Z,34.90
2023-01-27T01:06:55.946Z,34.84
2023-01-27T01:09:22.613Z,34.70
2023-01-27T01:11:49.139Z,34.66
2023-01-27T01:14:15.774Z,34.53
2023-01-27T01:16:42.280Z,34.52
2023-01-27T01:19:08.803Z,34.31
2023-01-27T01:21:35.367Z,34.57
2023-01-27T01:24:03.514Z,34.75
2023-01-27T01:26:30.029Z,34.63
2023-01-27T01:28:56.567Z,34.58
2023-01-27T01:31:23.217Z,34.41
2023-01-27T01:33:49.762Z,34.36
2023-01-27T01:36:18.428Z,34.46
2023-01-27T01:38:45.000Z,34.44
2023-01-27T01:41:15.764Z,34.43
2023-01-27T01:43:42.359Z,34.93
2023-01-27T01:46:11.009Z,34.50
2023-01-27T01:48:41.416Z,34.42
2023-01-27T01:51:12.328Z,34.33
2023-01-27T01:53:43.577Z,33.80
2023-01-27T01:56:17.903Z,34.11
2023-01-27T01:58:45.465Z,34.07
2023-01-27T02:01:14.585Z,34.42
2023-01-27T02:03:44.915Z,34.72
2023-01-27T02:06:11.728Z,34.34
2023-01-27T02:08:41.225Z,34.25
2023-01-27T02:11:08.818Z,34.05
2023-01-27T02:13:37.324Z,33.75
2023-01-27T02:16:04.225Z,33.89
2023-01-27T02:18:31.935Z,33.98
2023-01-27T02:20:58.643Z,33.94
2023-01-27T02:23:36.908Z,34.30
2023-01-27T02:26:09.284Z,34.27
2023-01-27T02:28:36.204Z,33.92
2023-01-27T02:31:03.209Z,33.92
2023-01-27T02:33:29.822Z,33.65
2023-01-27T02:36:02.389Z,33.53
2023-01-27T02:38:33.635Z,33.05
2023-01-27T02:41:07.796Z,33.08
2023-01-27T02:43:34.367Z,33.63
2023-01-27T02:46:01.125Z,33.14
2023-01-27T02:48:27.767Z,32.64
2023-01-27T02:50:54.578Z,32.33
2023-01-27T02:53:21.434Z,32.40
2023-01-27T02:55:48.186Z,32.35
2023-01-27T02:58:16.589Z,32.34
2023-01-27T03:00:43.882Z,32.17
2023-01-27T03:03:10.595Z,32.78
2023-01-27T03:05:37.337Z,32.87
2023-01-27T03:08:04.025Z,32.33
2023-01-27T03:10:31.055Z,32.17
2023-01-27T03:12:57.642Z,32.03
2023-01-27T03:15:25.468Z,32.00
2023-01-27T03:17:52.277Z,31.80
2023-01-27T03:20:19.360Z,32.06
2023-01-27T03:22:45.953Z,31.71
2023-01-27T03:25:12.949Z,32.77
2023-01-27T03:27:39.803Z,33.44
2023-01-27T03:30:07.821Z,32.51
2023-01-27T03:32:36.149Z,32.29
2023-01-27T03:35:02.939Z,31.87
2023-01-27T03:37:30.789Z,31.83
2023-01-27T03:39:57.389Z,31.83
2023-01-27T03:42:24.243Z,31.80
2023-01-27T03:44:50.999Z,31.83
2023-01-27T03:47:17.513Z,31.69
2023-01-27T03:49:45.422Z,32.82
2023-01-27T03:52:12.143Z,32.39
2023-01-27T03:54:38.659Z,31.84
2023-01-27T03:57:05.205Z,31.63
2023-01-27T03:59:31.784Z,31.62
2023-01-27T04:01:58.573Z,31.50
2023-01-27T04:04:25.216Z,31.32
2023-01-27T04:06:53.027Z,31.35
2023-01-27T04:09:21.441Z,32.55
2023-01-27T04:11:48.017Z,32.58
2023-01-27T04:14:14.586Z,31.97
2023-01-27T04:16:41.144Z,31.73
2023-01-27T04:19:09.842Z,31.39
2023-01-27T04:21:37.236Z,31.25
2023-01-27T04:24:06.035Z,31.02
2023-01-27T04:26:32.615Z,31.14
2023-01-27T04:28:59.740Z,31.28
2023-01-27T04:31:26.599Z,32.45
2023-01-27T04:33:53.445Z,32.73
2023-01-27T04:36:20.121Z,31.84
2023-01-27T04:38:46.818Z,31.71
2023-01-27T04:41:14.697Z,31.48
2023-01-27T04:43:41.343Z,31.33
2023-01-27T04:46:08.055Z,31.40
2023-01-27T04:48:34.597Z,31.13
2023-01-27T04:51:01.098Z,31.04
2023-01-27T04:53:27.838Z,30.69
2023-01-27T04:56:02.706Z,31.50
2023-01-27T04:58:30.847Z,32.40
2023-01-27T05:00:57.699Z,32.02
2023-01-27T05:03:24.354Z,31.77
2023-01-27T05:05:51.650Z,31.17
2023-01-27T05:08:18.513Z,31.17
2023-01-27T05:10:45.004Z,31.13
2023-01-27T05:13:11.645Z,30.93
2023-01-27T05:15:39.484Z,30.68
2023-01-27T05:18:06.051Z,31.06
2023-01-27T05:20:32.734Z,31.21
2023-01-27T05:22:59.261Z,32.13
2023-01-27T05:25:25.898Z,32.36
2023-01-27T05:27:53.824Z,31.32
2023-01-27T05:30:20.418Z,30.91
2023-01-27T05:32:48.251Z,30.99
2023-01-27T05:35:15.213Z,30.61
2023-01-27T05:37:41.943Z,30.37
2023-01-27T05:40:09.766Z,30.53
2023-01-27T05:42:36.265Z,30.68
2023-01-27T05:45:02.854Z,30.70
2023-01-27T05:47:29.410Z,31.88
2023-01-27T05:49:57.247Z,32.42
2023-01-27T05:52:23.838Z,31.81
2023-01-27T05:54:50.339Z,31.29
2023-01-27T05:57:16.993Z,30.99
2023-01-27T05:59:43.523Z,30.66
2023-01-27T06:02:10.095Z,30.80
2023-01-27T06:04:36.642Z,30.84
2023-01-27T06:07:04.485Z,30.54
2023-01-27T06:09:31.047Z,30.40
2023-01-27T06:11:57.682Z,30.24
2023-01-27T06:14:24.207Z,31.58
2023-01-27T06:16:50.850Z,32.34
2023-01-27T06:19:17.421Z,32.31
2023-01-27T06:21:43.910Z,31.85
2023-01-27T06:24:12.780Z,31.22
2023-01-27T06:26:40.267Z,31.15
2023-01-27T06:29:06.864Z,30.81
2023-01-27T06:31:33.488Z,30.77
2023-01-27T06:34:00.043Z,30.47
2023-01-27T06:36:26.653Z,30.44
2023-01-27T06:38:53.298Z,31.20
2023-01-27T06:41:21.067Z,31.97
2023-01-27T06:43:47.837Z,32.14
2023-01-27T06:46:14.882Z,31.16
2023-01-27T06:48:41.430Z,30.60
2023-01-27T06:51:08.133Z,30.65
2023-01-27T06:53:34.703Z,30.45
2023-01-27T06:56:01.575Z,30.38
2023-01-27T06:58:29.738Z,30.31
2023-01-27T07:00:56.862Z,30.41
2023-01-27T07:03:24.061Z,30.17
2023-01-27T07:05:51.092Z,31.22
2023-01-27T07:08:17.706Z,31.65
2023-01-27T07:10:44.228Z,31.51
2023-01-27T07:13:12.751Z,30.83
2023-01-27T07:15:40.836Z,30.36
2023-01-27T07:18:07.622Z,30.77
2023-01-27T07:20:34.369Z,30.88
2023-01-27T07:23:02.104Z,30.78
2023-01-27T07:25:29.968Z,31.66
2023-01-27T07:27:57.407Z,31.59
2023-01-27T07:30:24.131Z,31.31
2023-01-27T07:32:52.156Z,31.96
2023-01-27T07:35:18.868Z,31.41
2023-01-27T07:37:45.415Z,31.06
2023-01-27T07:40:12.979Z,30.55
2023-01-27T07:42:39.715Z,30.81
2023-01-27T07:45:07.351Z,31.79
2023-01-27T07:47:33.982Z,31.46
2023-01-27T07:50:01.819Z,31.70
2023-01-27T07:52:28.385Z,31.15
2023-01-27T07:54:54.897Z,31.18
2023-01-27T07:57:21.548Z,31.58
2023-01-27T07:59:48.138Z,31.28
2023-01-27T08:02:14.675Z,32.08
2023-01-27T08:04:52.630Z,31.63
2023-01-27T08:07:21.599Z,31.71
2023-01-27T08:09:48.208Z,31.35
2023-01-27T08:12:14.707Z,31.26
2023-01-27T08:14:41.235Z,31.17
2023-01-27T08:17:07.761Z,31.80
2023-01-27T08:19:34.507Z,32.45
2023-01-27T08:22:01.046Z,31.60
2023-01-27T08:24:29.007Z,32.01
2023-01-27T08:26:55.999Z,31.81
2023-01-27T08:29:22.614Z,31.97
2023-01-27T08:31:49.228Z,32.21
2023-01-27T08:34:16.210Z,32.14
2023-01-27T08:36:43.211Z,32.21
2023-01-27T08:39:10.152Z,33.05
2023-01-27T08:41:39.125Z,31.76
2023-01-27T08:44:05.989Z,31.95
2023-01-27T08:46:32.872Z,32.44
2023-01-27T08:48:59.731Z,32.15
2023-01-27T08:51:26.656Z,32.35
2023-01-27T08:53:53.499Z,31.55
2023-01-27T08:56:20.426Z,32.21
2023-01-27T08:58:49.273Z,32.06
2023-01-27T09:01:24.174Z,31.99
2023-01-27T09:06:31.516Z,31.91
2023-01-27T09:08:58.189Z,31.75
2023-01-27T09:11:24.851Z,32.72
2023-01-27T09:13:52.878Z,32.24
2023-01-27T09:16:19.660Z,32.02
2023-01-27T09:18:46.254Z,32.67
2023-01-27T09:21:12.952Z,33.79
2023-01-27T09:23:39.597Z,33.43
2023-01-27T09:26:06.341Z,33.94
2023-01-27T09:28:32.855Z,33.93
2023-01-27T09:31:00.774Z,33.46
2023-01-27T09:33:27.478Z,33.46
2023-01-27T09:35:59.573Z,33.86
2023-01-27T09:38:28.470Z,33.87
2023-01-27T09:41:09.540Z,33.69
2023-01-27T09:43:52.894Z,34.05
2023-01-27T09:46:36.651Z,34.20
2023-01-27T09:49:22.973Z,33.54
2023-01-27T09:52:05.799Z,33.62
2023-01-27T09:54:48.819Z,33.98
2023-01-27T09:57:24.987Z,33.50
2023-01-27T10:00:02.979Z,33.20
2023-01-27T10:02:51.607Z,32.60
2023-01-27T10:05:42.145Z,32.25
2023-01-27T10:08:19.014Z,31.58
2023-01-27T10:11:02.005Z,32.77
2023-01-27T10:13:39.678Z,33.49
2023-01-27T10:16:20.499Z,33.56
2023-01-27T10:19:05.117Z,33.80
2023-01-27T10:21:42.868Z,33.74
2023-01-27T10:24:20.795Z,33.34
2023-01-27T10:26:50.811Z,32.49
2023-01-27T10:29:24.521Z,33.39
2023-01-27T10:31:56.827Z,34.22
2023-01-27T10:34:28.466Z,33.94
2023-01-27T10:37:06.215Z,35.07
2023-01-27T10:39:42.171Z,34.70
2023-01-27T10:42:22.351Z,34.22
2023-01-27T10:45:03.890Z,34.10
2023-01-27T10:47:41.253Z,34.18
2023-01-27T10:50:13.891Z,34.98
2023-01-27T10:52:45.568Z,35.42
2023-01-27T10:55:17.304Z,35.78
2023-01-27T10:57:50.625Z,34.90
2023-01-27T11:00:49.241Z,35.51
2023-01-27T11:03:14.061Z,35.25
2023-01-27T11:05:46.723Z,35.39
2023-01-27T11:08:17.428Z,35.71
2023-01-27T11:10:48.869Z,34.37
2023-01-27T11:13:17.017Z,34.82
2023-01-27T11:15:44.349Z,34.27
2023-01-27T11:18:16.967Z,34.81
2023-01-27T11:20:49.359Z,34.64
2023-01-27T11:23:19.404Z,35.41
2023-01-27T11:25:52.871Z,35.49
2023-01-27T11:28:28.639Z,35.24
2023-01-27T11:31:05.420Z,34.87
2023-01-27T11:33:42.830Z,34.68
2023-01-27T11:36:10.916Z,34.66
2023-01-27T11:38:37.550Z,34.97
2023-01-27T11:41:04.629Z,35.61
2023-01-27T11:43:32.031Z,35.56
2023-01-27T11:46:02.686Z,35.91
2023-01-27T11:48:37.861Z,35.99
2023-01-27T11:51:04.926Z,35.13
2023-01-27T11:53:37.265Z,35.90
2023-01-27T11:56:09.138Z,35.69
2023-01-27T11:58:43.181Z,35.76
2023-01-27T12:01:14.200Z,35.34
2023-01-27T12:03:49.603Z,35.95
2023-01-27T12:06:21.272Z,36.12
2023-01-27T12:08:49.183Z,35.61
2023-01-27T12:11:20.469Z,35.42
2023-01-27T12:13:50.316Z,35.87
2023-01-27T12:16:17.181Z,36.70
2023-01-27T12:18:51.950Z,36.43
2023-01-27T12:21:18.910Z,36.13
2023-01-27T12:23:51.938Z,35.86
2023-01-27T12:26:31.122Z,35.82
2023-01-27T12:29:03.280Z,35.79
2023-01-27T12:31:31.684Z,36.38
2023-01-27T12:34:00.607Z,35.56
2023-01-27T12:36:30.266Z,35.89
2023-01-27T12:39:01.273Z,37.09
2023-01-27T12:41:30.686Z,36.32
2023-01-27T12:43:58.925Z,36.29
2023-01-27T12:46:27.717Z,36.44
2023-01-27T12:49:01.279Z,36.13
2023-01-27T12:51:38.194Z,36.01
2023-01-27T12:54:17.319Z,35.93
2023-01-27T12:56:43.934Z,36.00
2023-01-27T12:59:14.333Z,36.87
2023-01-27T13:01:41.303Z,36.99
2023-01-27T13:04:15.877Z,36.87
2023-01-27T13:06:46.207Z,36.85
2023-01-27T13:09:25.528Z,37.08
2023-01-27T13:11:54.056Z,37.16
2023-01-27T13:14:21.232Z,36.98
2023-01-27T13:16:52.994Z,37.58
2023-01-27T13:19:20.746Z,37.87
2023-01-27T13:21:52.769Z,37.97
2023-01-27T13:24:31.912Z,37.77
2023-01-27T13:27:01.172Z,37.51
2023-01-27T13:29:33.797Z,38.09
2023-01-27T13:32:05.732Z,38.20
2023-01-27T13:34:39.582Z,38.19
2023-01-27T13:37:12.158Z,37.99
2023-01-27T13:39:57.037Z,38.15
2023-01-27T13:42:28.781Z,38.39
2023-01-27T13:45:01.315Z,37.91
2023-01-27T13:47:34.425Z,38.33
2023-01-27T13:50:08.849Z,38.32
2023-01-27T13:52:35.814Z,38.33
2023-01-27T13:55:04.851Z,38.23
2023-01-27T13:57:54.630Z,38.32
2023-01-27T14:00:25.239Z,38.42
2023-01-27T14:03:12.659Z,38.42
2023-01-27T14:05:49.147Z,38.42
2023-01-27T14:08:28.204Z,38.34
2023-01-27T14:11:09.567Z,38.50
2023-01-27T14:13:52.609Z,36.75
2023-01-27T14:16:25.235Z,35.87
2023-01-27T14:18:58.096Z,35.36
2023-01-27T14:21:43.611Z,35.29
2023-01-27T14:24:36.878Z,35.20
2023-01-27T14:27:13.485Z,35.05
2023-01-27T14:29:50.069Z,34.97
2023-01-27T14:32:26.559Z,35.18
2023-01-27T14:35:06.659Z,34.89
2023-01-27T14:37:40.253Z,35.04
2023-01-27T14:40:17.363Z,35.17
2023-01-27T14:42:55.162Z,35.32
2023-01-27T14:45:25.435Z,35.57
2023-01-27T14:48:00.413Z,35.31
2023-01-27T14:50:33.772Z,35.44
2023-01-27T14:53:15.018Z,35.75
2023-01-27T14:55:48.528Z,35.72
2023-01-27T14:58:30.640Z,35.76
2023-01-27T15:01:08.275Z,34.67
2023-01-27T15:03:56.263Z,35.78
2023-01-27T15:06:34.545Z,35.28
2023-01-27T15:09:08.997Z,35.50
2023-01-27T15:11:55.004Z,35.55
2023-01-27T15:14:45.566Z,35.97
2023-01-27T15:17:32.564Z,34.91
2023-01-27T15:20:22.640Z,35.18
2023-01-27T15:23:03.902Z,35.32
2023-01-27T15:25:34.086Z,35.56
2023-01-27T15:28:02.573Z,35.43
2023-01-27T15:30:32.752Z,35.71
2023-01-27T15:32:59.272Z,35.83
2023-01-27T15:35:34.474Z,35.88
2023-01-27T15:38:17.044Z,35.64
2023-01-27T15:40:59.064Z,35.46
2023-01-27T15:43:29.521Z,35.27
2023-01-27T15:46:17.464Z,35.71
2023-01-27T15:48:45.187Z,35.44
2023-01-27T15:51:18.456Z,35.49
2023-01-27T15:53:49.798Z,35.65
2023-01-27T15:56:16.765Z,35.52
2023-01-27T15:58:51.034Z,34.91
2023-01-27T16:01:27.218Z,34.36
2023-01-27T16:04:06.907Z,34.20
2023-01-27T16:06:34.758Z,34.24
2023-01-27T16:09:04.150Z,34.48
2023-01-27T16:11:40.617Z,34.18
2023-01-27T16:14:26.958Z,34.12
2023-01-27T16:17:16.168Z,34.23
2023-01-27T16:19:45.985Z,33.91
2023-01-27T16:22:14.803Z,34.18
2023-01-27T16:24:46.952Z,34.26
2023-01-27T16:27:24.919Z,34.41
2023-01-27T16:29:57.958Z,33.97
2023-01-27T16:32:36.034Z,34.27
2023-01-27T16:35:07.347Z,34.26
2023-01-27T16:37:38.115Z,34.47
2023-01-27T16:40:07.762Z,34.45
2023-01-27T16:42:37.759Z,34.09
2023-01-27T16:45:16.001Z,34.36
2023-01-27T16:47:48.075Z,34.32
2023-01-27T16:50:32.934Z,34.48
2023-01-27T16:53:00.211Z,34.26
2023-01-27T16:55:27.164Z,34.42
2023-01-27T16:57:55.667Z,34.66
2023-01-27T17:00:25.857Z,34.76
2023-01-27T17:02:56.859Z,34.76
2023-01-27T17:05:23.654Z,34.42
2023-01-27T17:08:02.215Z,34.62
2023-01-27T17:10:34.824Z,34.78
2023-01-27T17:13:02.102Z,34.80
2023-01-27T17:15:34.137Z,34.58
2023-01-27T17:18:03.369Z,34.87
2023-01-27T17:20:34.546Z,34.75
2023-01-27T17:23:02.307Z,34.72
2023-01-27T17:25:31.672Z,34.68
2023-01-27T17:28:00.136Z,34.39
2023-01-27T17:30:32.577Z,34.83
2023-01-27T17:33:02.245Z,34.75
2023-01-27T17:35:31.188Z,34.80
2023-01-27T17:38:07.312Z,34.80
2023-01-27T17:40:36.392Z,34.68
2023-01-27T17:43:22.806Z,34.75
2023-01-27T17:46:11.976Z,34.69
2023-01-27T17:48:42.263Z,34.84
2023-01-27T17:51:11.995Z,34.98
2023-01-27T17:53:42.443Z,35.04
2023-01-27T17:56:12.598Z,34.62
2023-01-27T17:58:39.210Z,34.94
2023-01-27T18:01:05.971Z,34.97
2023-01-27T18:03:35.534Z,34.95
2023-01-27T18:06:06.253Z,34.91
2023-01-27T18:08:33.671Z,34.88
2023-01-27T18:11:10.147Z,35.08
2023-01-27T18:13:38.662Z,34.70
2023-01-27T18:16:13.897Z,34.62
2023-01-27T18:18:40.487Z,34.76
2023-01-27T18:21:16.855Z,34.69
2023-01-27T18:23:45.178Z,34.90
2023-01-27T18:26:18.160Z,34.79
2023-01-27T18:28:48.612Z,34.87
2023-01-27T18:31:18.450Z,34.87
2023-01-27T18:33:45.092Z,34.88
2023-01-27T18:36:21.806Z,34.73
2023-01-27T18:38:49.933Z,34.88
2023-01-27T18:41:23.528Z,34.71
2023-01-27T18:43:50.041Z,34.90
2023-01-27T18:46:16.554Z,34.88
2023-01-27T18:48:43.098Z,34.91
2023-01-27T18:51:13.151Z,34.91
2023-01-27T18:53:41.117Z,34.83
2023-01-27T18:56:08.311Z,34.59
2023-01-27T18:58:34.953Z,34.83
2023-01-27T19:01:02.302Z,34.86
2023-01-27T19:03:30.371Z,34.76
2023-01-27T19:05:57.027Z,34.74
2023-01-27T19:08:24.764Z,34.60
2023-01-27T19:10:52.668Z,34.69
2023-01-27T19:13:19.671Z,35.00
2023-01-27T19:15:49.858Z,34.76
2023-01-27T19:18:21.637Z,34.65
2023-01-27T19:20:48.242Z,34.64
2023-01-27T19:23:16.592Z,34.83
2023-01-27T19:25:45.616Z,34.61
2023-01-27T19:28:17.867Z,34.43
2023-01-27T19:30:45.173Z,34.52
2023-01-27T19:33:17.128Z,34.49
2023-01-27T19:35:45.857Z,34.41
2023-01-27T19:38:12.961Z,34.64
2023-01-27T19:40:40.143Z,34.47
2023-01-27T19:43:06.637Z,34.72
2023-01-27T19:45:34.490Z,34.49
2023-01-27T19:48:01.051Z,34.59
2023-01-27T19:50:29.873Z,34.53
2023-01-27T19:52:56.704Z,34.53
2023-01-27T19:55:23.486Z,34.68
2023-01-27T19:57:51.519Z,34.76
2023-01-27T20:00:23.512Z,34.53
2023-01-27T20:02:51.462Z,34.63
2023-01-27T20:05:18.569Z,34.83
2023-01-27T20:07:45.606Z,34.74
2023-01-27T20:10:16.798Z,34.62
2023-01-27T20:12:43.759Z,34.77
2023-01-27T20:15:16.923Z,34.70
2023-01-27T20:17:43.702Z,34.58
2023-01-27T20:20:13.312Z,34.64
2023-01-27T20:22:39.839Z,34.63
2023-01-27T20:25:07.103Z,34.58
2023-01-27T20:27:33.590Z,34.64
2023-01-27T20:30:00.227Z,34.66
2023-01-27T20:32:26.825Z,34.36
2023-01-27T20:34:53.282Z,34.48
2023-01-27T20:37:21.084Z,34.67
2023-01-27T20:39:47.591Z,34.57
2023-01-27T20:42:14.140Z,34.56
2023-01-27T20:44:40.643Z,34.64
2023-01-27T20:47:07.223Z,34.53
2023-01-27T20:49:34.438Z,34.61
2023-01-27T20:52:00.986Z,34.50
2023-01-27T20:54:28.775Z,34.53
2023-01-27T20:56:55.275Z,34.57
2023-01-27T20:59:21.807Z,34.16
2023-01-27T21:01:48.477Z,34.46
2023-01-27T21:04:14.986Z,34.57
2023-01-27T21:06:41.614Z,34.20
2023-01-27T21:09:08.182Z,33.94
2023-01-27T21:11:35.949Z,33.54
2023-01-27T21:14:02.493Z,33.86
2023-01-27T21:16:29.119Z,33.61
2023-01-27T21:18:55.773Z,33.87
2023-01-27T21:21:24.128Z,33.72
2023-01-27T21:23:51.005Z,33.69
2023-01-27T21:26:18.577Z,33.71
2023-01-27T21:28:46.551Z,33.61
2023-01-27T21:31:15.795Z,33.63
2023-01-27T21:33:43.322Z,33.60
2023-01-27T21:36:10.871Z,33.42
2023-01-27T21:38:38.238Z,33.52
2023-01-27T21:41:05.812Z,33.67
2023-01-27T21:43:32.576Z,33.40
2023-01-27T21:46:00.445Z,33.35
2023-01-27T21:48:27.090Z,33.52
2023-01-27T21:50:53.920Z,33.45
2023-01-27T21:53:20.660Z,33.32
2023-01-27T21:55:47.332Z,33.23
2023-01-27T21:58:14.109Z,33.40
2023-01-27T22:00:40.815Z,33.46
2023-01-27T22:03:08.701Z,33.47
2023-01-27T22:05:36.837Z,33.27
2023-01-27T22:08:03.512Z,33.37
2023-01-27T22:10:30.540Z,33.03
2023-01-27T22:12:58.412Z,33.16
2023-01-27T22:15:25.838Z,33.14
2023-01-27T22:17:52.335Z,33.26
2023-01-27T22:20:20.759Z,33.22
2023-01-27T22:22:47.462Z,33.25
2023-01-27T22:25:15.969Z,33.33
2023-01-27T22:27:43.422Z,33.26
2023-01-27T22:30:12.996Z,33.18
2023-01-27T22:32:39.886Z,33.20
2023-01-27T22:35:07.364Z,33.12
2023-01-27T22:37:35.998Z,33.16
2023-01-27T22:40:02.595Z,33.07
2023-01-27T22:42:29.125Z,33.16
2023-01-27T22:44:55.741Z,33.05
2023-01-27T22:47:22.278Z,33.05
2023-01-27T22:49:48.829Z,32.99
2023-01-27T22:52:15.415Z,33.01
2023-01-27T22:54:43.418Z,33.10
2023-01-27T22:57:10.435Z,33.23
2023-01-27T22:59:37.925Z,33.04
2023-01-27T23:02:04.619Z,33.15
2023-01-27T23:04:31.167Z,33.07
2023-01-27T23:06:57.725Z,32.99
2023-01-27T23:09:24.386Z,33.24
2023-01-27T23:11:52.219Z,32.92
2023-01-27T23:14:19.072Z,33.12
2023-01-27T23:16:45.673Z,32.98
2023-01-27T23:19:12.173Z,32.94
2023-01-27T23:21:38.692Z,33.06
2023-01-27T23:24:07.636Z,32.79
2023-01-27T23:26:34.486Z,33.03
2023-01-27T23:29:02.451Z,33.07
2023-01-27T23:31:29.175Z,32.88
2023-01-27T23:33:55.747Z,32.93
2023-01-27T23:36:22.331Z,32.72
2023-01-27T23:38:48.968Z,32.85
2023-01-27T23:41:15.557Z,32.76
2023-01-27T23:43:42.103Z,32.68
2023-01-27T23:46:10.153Z,32.82
2023-01-27T23:48:36.678Z,32.62
2023-01-27T23:51:08.320Z,32.58
2023-01-27T23:53:34.854Z,32.50
2023-01-27T23:56:01.412Z,32.49
2023-01-27T23:58:28.079Z,32.49
